Hickory Regional Airport Hickory US
ICAO: KHKY
IATA: HKY
Category: Medium
Scheduled Services: No

Elevation: 1190 ft
TransAlt. 18000 ft.

Airport Communications:
ASOS:118.325
CLNC DEL:121.7
ATLANTA CNTR:125.15
CTAF:128.15
GND:121.7
RALEIGH RDO:122.2
TWR:128.15

KHKY Zoom In..

Runways:

(A) RW 01 length 4400 ft width 150 ft
---- / hdg 14

(B) RW 06 length 6400 ft width 150 ft
---- / hdg 61

(C) RW 19 length 4400 ft width 150 ft
---- / hdg 194

(D) RW 24 length 6400 ft width 150 ft
ILS 108.70 / hdg 241

Location; KHKY
Day. 23 / Time. 14.53 Zulu
* Altimeter: 29.78
* Temperature: 14° c. 57.2°f.
* Wind from: 210° Speed 13 kn with Gusts up to 22 kn.
Dewpoint: 03° c.
Visibility: 10 Statute Miles.
Clouds: Clear (automated report).

KHKY 231453Z 21013G22KT 10SM CLR 14/03 A2978 RMK AO2 PK WND 21029/1418 SLP071 T01440033 53011


Wind From 210°
Speed 13 kn.

YouTube Music Video
 
jpsmedia.com for Web Design  worldairports.se 2018   terms of use